createdAt,value
2019-05-03T00:00:03.661Z,2.07
2019-05-03T00:04:06.744Z,2.30
2019-05-03T00:08:10.006Z,1.90
2019-05-03T00:12:16.068Z,2.20
2019-05-03T00:16:24.858Z,2.30
2019-05-03T00:20:27.849Z,2.50
2019-05-03T00:24:32.104Z,3.10
2019-05-03T00:28:35.362Z,2.00
2019-05-03T00:32:38.275Z,2.47
2019-05-03T00:36:49.288Z,3.70
2019-05-03T00:40:52.443Z,2.40
2019-05-03T00:44:55.457Z,2.17
2019-05-03T00:48:58.485Z,2.13
2019-05-03T00:53:02.390Z,2.50
2019-05-03T00:57:05.626Z,2.10
2019-05-03T01:01:08.871Z,1.90
2019-05-03T01:05:12.083Z,2.40
2019-05-03T01:09:22.534Z,1.70
2019-05-03T01:13:25.634Z,2.73
2019-05-03T01:17:31.688Z,1.80
2019-05-03T01:21:34.943Z,2.80
2019-05-03T01:25:37.943Z,2.30
2019-05-03T01:29:42.471Z,2.60
2019-05-03T01:33:45.709Z,2.27
2019-05-03T01:37:51.693Z,3.10
2019-05-03T01:41:53.667Z,2.00
2019-05-03T01:45:58.497Z,2.53
2019-05-03T01:50:12.082Z,2.90
2019-05-03T01:54:16.319Z,1.93
2019-05-03T01:58:23.285Z,2.23
2019-05-03T02:02:57.548Z,2.20
2019-05-03T02:07:02.313Z,2.00
2019-05-03T02:11:05.742Z,2.13
2019-05-03T02:15:08.971Z,2.27
2019-05-03T02:19:12.647Z,2.23
2019-05-03T02:23:15.967Z,2.57
2019-05-03T02:27:18.962Z,2.50
2019-05-03T02:31:23.116Z,2.40
2019-05-03T02:35:26.335Z,2.33
2019-05-03T02:39:29.335Z,2.20
2019-05-03T02:43:36.656Z,3.13
2019-05-03T02:47:55.451Z,2.40
2019-05-03T02:51:58.587Z,2.60
2019-05-03T02:56:15.265Z,2.70
2019-05-03T03:00:09.160Z,2.60
2019-05-03T03:04:12.190Z,2.80
2019-05-03T03:08:17.272Z,2.33
2019-05-03T03:12:25.598Z,2.67
2019-05-03T03:16:29.795Z,3.07
2019-05-03T03:20:35.759Z,3.00
2019-05-03T03:24:41.901Z,2.33
2019-05-03T03:28:48.509Z,2.43
2019-05-03T03:32:51.602Z,2.50
2019-05-03T03:37:04.463Z,2.73
2019-05-03T03:41:02.039Z,2.93
2019-05-03T03:45:06.008Z,2.67
2019-05-03T03:49:10.958Z,2.77
2019-05-03T03:53:16.330Z,2.90
2019-05-03T03:57:21.732Z,2.37
2019-05-03T04:01:26.657Z,3.07
2019-05-03T04:05:30.294Z,2.57
2019-05-03T04:09:36.064Z,2.93
2019-05-03T04:13:40.503Z,2.97
2019-05-03T04:18:05.479Z,2.30
2019-05-03T04:22:12.435Z,2.27
2019-05-03T04:26:18.639Z,1.93
2019-05-03T04:30:21.762Z,2.50
2019-05-03T04:34:26.371Z,2.70
2019-05-03T04:38:31.306Z,2.60
2019-05-03T04:42:35.660Z,3.13
2019-05-03T04:46:39.632Z,4.93
2019-05-03T04:50:45.692Z,3.70
2019-05-03T04:54:56.880Z,3.33
2019-05-03T04:59:01.248Z,2.70
2019-05-03T05:03:05.910Z,2.57
2019-05-03T05:07:09.455Z,2.97
2019-05-03T05:11:12.352Z,2.80
2019-05-03T05:15:17.787Z,2.83
2019-05-03T05:19:27.066Z,2.80
2019-05-03T05:23:30.073Z,3.07
2019-05-03T05:27:48.665Z,2.40
2019-05-03T05:31:44.685Z,3.10
2019-05-03T05:35:48.109Z,2.63
2019-05-03T05:39:51.032Z,2.50
2019-05-03T05:43:54.990Z,2.10
2019-05-03T05:48:05.140Z,2.90
2019-05-03T05:52:08.443Z,3.60
2019-05-03T05:56:36.681Z,3.20
2019-05-03T06:00:59.154Z,2.73
2019-05-03T06:05:04.835Z,2.60
2019-05-03T06:09:28.118Z,2.50
2019-05-03T06:13:38.005Z,2.47
2019-05-03T06:17:47.735Z,3.20
2019-05-03T06:22:30.804Z,1.87
2019-05-03T06:26:59.126Z,2.00
2019-05-03T06:31:34.420Z,2.43
2019-05-03T06:35:39.011Z,2.40
2019-05-03T06:39:45.395Z,2.67
2019-05-03T06:43:48.889Z,2.40
2019-05-03T06:47:52.067Z,2.67
2019-05-03T06:51:55.175Z,2.70
2019-05-03T06:55:58.196Z,3.07
2019-05-03T07:00:20.571Z,2.40
2019-05-03T07:04:27.344Z,2.37
2019-05-03T07:08:51.627Z,2.33
2019-05-03T07:13:01.678Z,2.87
2019-05-03T07:17:05.524Z,2.50
2019-05-03T07:21:12.615Z,2.87
2019-05-03T07:25:15.813Z,2.93
2019-05-03T07:29:18.828Z,1.90
2019-05-03T07:33:29.955Z,2.50
2019-05-03T07:37:34.759Z,1.83
2019-05-03T07:41:37.812Z,2.50
2019-05-03T07:45:40.833Z,2.20
2019-05-03T07:49:44.710Z,2.63
2019-05-03T07:53:47.973Z,2.10
2019-05-03T07:57:55.485Z,2.57
2019-05-03T08:01:58.809Z,2.70
2019-05-03T08:06:01.854Z,2.30
2019-05-03T08:10:07.478Z,2.23
2019-05-03T08:14:10.607Z,2.37
2019-05-03T08:18:15.327Z,2.80
2019-05-03T08:22:18.517Z,2.13
2019-05-03T08:26:21.555Z,2.33
2019-05-03T08:30:30.873Z,1.90
2019-05-03T08:35:02.138Z,3.20
2019-05-03T08:39:06.202Z,2.30
2019-05-03T08:43:09.095Z,2.33
2019-05-03T08:47:12.059Z,1.77
2019-05-03T08:51:15.104Z,2.70
2019-05-03T08:55:18.104Z,2.13
2019-05-03T08:59:29.716Z,2.00
2019-05-03T09:03:25.880Z,2.80
2019-05-03T09:07:28.804Z,1.87
2019-05-03T09:11:34.770Z,1.63
2019-05-03T09:15:37.231Z,1.87
2019-05-03T09:19:40.219Z,1.60
2019-05-03T09:23:44.962Z,2.00
2019-05-03T09:27:48.103Z,1.73
2019-05-03T09:31:51.130Z,1.70
2019-05-03T09:35:54.968Z,1.63
2019-05-03T09:39:59.455Z,1.80
2019-05-03T09:44:04.625Z,2.20
2019-05-03T09:48:07.389Z,2.27
2019-05-03T09:52:10.381Z,1.63
2019-05-03T09:56:19.227Z,1.93
2019-05-03T10:00:24.444Z,2.20
2019-05-03T10:04:27.179Z,1.83
2019-05-03T10:08:31.955Z,1.77
2019-05-03T10:12:35.206Z,1.80
2019-05-03T10:16:44.881Z,1.40
2019-05-03T10:20:48.022Z,2.00
2019-05-03T10:24:51.178Z,2.37
2019-05-03T10:28:55.317Z,2.20
2019-05-03T10:33:12.274Z,1.40
2019-05-03T10:37:35.808Z,1.63
2019-05-03T10:41:39.245Z,1.50
2019-05-03T10:45:42.128Z,2.00
2019-05-03T10:49:46.927Z,2.50
2019-05-03T10:53:57.326Z,2.60
2019-05-03T10:58:19.034Z,1.80
2019-05-03T11:02:48.827Z,2.00
2019-05-03T11:06:54.945Z,1.77
2019-05-03T11:10:57.920Z,1.27
2019-05-03T11:15:00.892Z,1.30
2019-05-03T11:19:05.566Z,1.30
2019-05-03T11:23:09.857Z,1.20
2019-05-03T11:27:20.460Z,1.70
2019-05-03T11:31:41.278Z,1.20
2019-05-03T11:36:08.077Z,1.40
2019-05-03T11:40:11.389Z,1.57
2019-05-03T11:44:36.369Z,1.20
2019-05-03T11:48:40.130Z,1.57
2019-05-03T11:52:46.754Z,1.40
2019-05-03T11:56:48.047Z,1.63
2019-05-03T12:01:11.851Z,1.40
2019-05-03T12:05:06.765Z,2.20
2019-05-03T12:09:09.846Z,2.00
2019-05-03T12:13:34.854Z,2.17
2019-05-03T12:17:51.042Z,1.50
2019-05-03T12:21:44.977Z,1.53
2019-05-03T12:25:49.003Z,1.47
2019-05-03T12:29:54.140Z,1.50
2019-05-03T12:33:57.150Z,1.50
2019-05-03T12:38:00.114Z,1.70
2019-05-03T12:42:05.660Z,1.80
2019-05-03T12:46:08.605Z,2.33
2019-05-03T12:50:12.071Z,2.10
2019-05-03T12:54:15.315Z,1.93
2019-05-03T12:58:18.365Z,1.70
2019-05-03T13:02:29.695Z,1.60
2019-05-03T13:06:34.829Z,1.57
2019-05-03T13:10:37.812Z,1.57
2019-05-03T13:14:40.809Z,1.90
2019-05-03T13:18:45.768Z,1.80
2019-05-03T13:22:49.042Z,1.63
2019-05-03T13:26:56.763Z,2.00
2019-05-03T13:30:59.743Z,1.83
2019-05-03T13:35:02.839Z,1.63
2019-05-03T13:39:13.905Z,1.57
2019-05-03T13:43:15.007Z,1.83
2019-05-03T13:47:18.157Z,2.10
2019-05-03T13:51:21.171Z,1.73
2019-05-03T13:55:24.722Z,1.97
2019-05-03T13:59:27.908Z,2.03
2019-05-03T14:03:31.025Z,1.87
2019-05-03T14:07:35.387Z,2.00
2019-05-03T14:11:38.555Z,1.80
2019-05-03T14:15:41.675Z,1.90
2019-05-03T14:19:45.184Z,2.73
2019-05-03T14:24:06.243Z,2.97
2019-05-03T14:28:09.247Z,1.70
2019-05-03T14:32:24.764Z,1.73
2019-05-03T14:36:18.561Z,1.90
2019-05-03T14:40:21.649Z,1.83
2019-05-03T14:44:26.458Z,1.67
2019-05-03T14:48:29.545Z,2.00
2019-05-03T14:52:34.629Z,2.47
2019-05-03T14:56:52.736Z,1.40
2019-05-03T15:01:04.720Z,1.80
2019-05-03T15:05:08.276Z,1.90
2019-05-03T15:09:11.349Z,1.87
2019-05-03T15:13:15.909Z,1.37
2019-05-03T15:17:20.015Z,1.93
2019-05-03T15:21:25.088Z,1.70
2019-05-03T15:25:27.898Z,1.73
2019-05-03T15:29:31.263Z,1.80
2019-05-03T15:33:35.856Z,1.70
2019-05-03T15:37:38.991Z,1.70
2019-05-03T15:41:42.607Z,1.57
2019-05-03T15:46:16.795Z,1.50
2019-05-03T15:54:24.546Z,1.50
2019-05-03T15:58:27.559Z,1.50
2019-05-03T16:02:30.688Z,1.40
2019-05-03T16:06:34.789Z,1.30
2019-05-03T16:10:37.759Z,1.00
2019-05-03T16:14:40.705Z,1.07
2019-05-03T16:18:44.835Z,1.47
2019-05-03T16:22:54.240Z,1.33
2019-05-03T16:27:10.888Z,1.50
2019-05-03T16:31:16.466Z,1.03
2019-05-03T16:35:19.546Z,1.60
2019-05-03T16:39:24.413Z,1.53
2019-05-03T16:43:27.438Z,1.50
2019-05-03T16:47:30.486Z,1.63
2019-05-03T16:51:34.950Z,1.70
2019-05-03T16:55:38.195Z,1.60
2019-05-03T16:59:41.124Z,1.43
2019-05-03T17:03:54.972Z,1.50
2019-05-03T17:08:25.108Z,1.37
2019-05-03T17:12:29.373Z,1.80
2019-05-03T17:16:34.330Z,1.53
2019-05-03T17:20:37.211Z,1.60
2019-05-03T17:24:41.999Z,1.50
2019-05-03T17:28:44.962Z,2.00
2019-05-03T17:32:48.252Z,1.90
2019-05-03T17:36:51.294Z,2.07
2019-05-03T17:41:06.256Z,2.10
2019-05-03T17:45:09.492Z,1.67
2019-05-03T17:49:14.702Z,1.77
2019-05-03T17:53:55.063Z,1.73
2019-05-03T17:58:20.374Z,1.93
2019-05-03T18:02:44.994Z,2.30
2019-05-03T18:07:08.355Z,3.03
2019-05-03T18:11:14.747Z,2.70
2019-05-03T18:15:17.837Z,2.20
2019-05-03T18:19:20.849Z,2.33
2019-05-03T18:23:24.619Z,2.27
2019-05-03T18:27:28.331Z,2.60
2019-05-03T18:31:31.245Z,2.63
2019-05-03T18:35:34.421Z,2.57
2019-05-03T18:39:37.333Z,2.67
2019-05-03T18:44:05.991Z,2.57
2019-05-03T18:48:10.117Z,2.70
2019-05-03T18:52:14.810Z,2.43
2019-05-03T18:56:19.920Z,2.40
2019-05-03T19:00:24.705Z,2.73
2019-05-03T19:04:35.737Z,2.40
2019-05-03T19:08:54.221Z,2.50
2019-05-03T19:13:12.301Z,1.97
2019-05-03T19:17:36.435Z,1.67
2019-05-03T19:21:40.022Z,2.20
2019-05-03T19:25:49.173Z,2.00
2019-05-03T19:29:49.601Z,2.30
2019-05-03T19:33:54.951Z,3.00
2019-05-03T19:37:57.401Z,2.60
2019-05-03T19:42:00.398Z,3.10
2019-05-03T19:46:04.628Z,3.40
2019-05-03T19:50:10.198Z,3.63
2019-05-03T19:54:14.632Z,3.50
2019-05-03T19:58:17.815Z,3.27
2019-05-03T20:02:31.973Z,3.63
2019-05-03T20:06:45.054Z,3.60
2019-05-03T20:10:48.385Z,3.27
2019-05-03T20:14:51.378Z,2.90
2019-05-03T20:18:55.606Z,3.37
2019-05-03T20:22:59.102Z,2.80
2019-05-03T20:27:02.111Z,2.90
2019-05-03T20:31:05.209Z,3.10
2019-05-03T20:35:16.655Z,2.67
2019-05-03T20:39:14.825Z,2.90
2019-05-03T20:43:46.146Z,2.63
2019-05-03T20:47:56.801Z,2.27
2019-05-03T20:52:02.949Z,3.47
2019-05-03T20:56:15.489Z,4.00
2019-05-03T21:00:23.027Z,2.60
2019-05-03T21:04:26.175Z,2.53
2019-05-03T21:08:30.288Z,2.97
2019-05-03T21:12:34.635Z,2.20
2019-05-03T21:16:51.588Z,1.83
2019-05-03T21:20:57.281Z,2.37
2019-05-03T21:25:07.132Z,2.17
2019-05-03T21:29:15.074Z,1.70
2019-05-03T21:33:19.008Z,1.50
2019-05-03T21:37:21.963Z,1.70
2019-05-03T21:41:24.912Z,2.50
2019-05-03T21:45:35.713Z,2.00
2019-05-03T21:49:41.734Z,2.70
2019-05-03T21:53:45.058Z,1.97
2019-05-03T21:57:48.015Z,1.90
2019-05-03T22:01:51.148Z,2.30
2019-05-03T22:05:55.975Z,2.23
2019-05-03T22:09:58.998Z,2.07
2019-05-03T22:14:04.863Z,2.57
2019-05-03T22:18:16.538Z,2.27
2019-05-03T22:22:45.167Z,2.20
2019-05-03T22:27:15.287Z,2.50
2019-05-03T22:31:18.396Z,2.47
2019-05-03T22:35:21.535Z,2.40
2019-05-03T22:39:25.029Z,2.40
2019-05-03T22:43:28.512Z,2.00
2019-05-03T22:47:31.490Z,4.70
2019-05-03T22:51:34.636Z,2.07
2019-05-03T22:55:37.710Z,2.23
2019-05-03T22:59:40.697Z,3.00
2019-05-03T23:03:45.479Z,2.60
2019-05-03T23:07:48.449Z,2.80
2019-05-03T23:11:51.545Z,2.50
2019-05-03T23:15:54.712Z,2.73
2019-05-03T23:20:04.607Z,2.57
2019-05-03T23:24:07.737Z,2.90
2019-05-03T23:28:10.701Z,2.93
2019-05-03T23:32:15.141Z,2.80
2019-05-03T23:36:18.208Z,2.73
2019-05-03T23:40:21.232Z,3.10
2019-05-03T23:44:24.509Z,2.83
2019-05-03T23:48:27.509Z,3.17
2019-05-03T23:52:36.908Z,3.20
2019-05-03T23:56:41.027Z,3.20
